sensor_id;sensor_type;location;lat;lon;timestamp;temperature;humidity
10388;DHT22;5240;51.128;4.566;2022-11-20T00:02:21;4.10;99.90
10388;DHT22;5240;51.128;4.566;2022-11-20T00:04:48;4.00;99.90
10388;DHT22;5240;51.128;4.566;2022-11-20T00:07:15;4.00;99.90
10388;DHT22;5240;51.128;4.566;2022-11-20T00:09:42;4.00;99.90
10388;DHT22;5240;51.128;4.566;2022-11-20T00:12:09;4.10;99.90
10388;DHT22;5240;51.128;4.566;2022-11-20T00:14:37;4.00;99.90
10388;DHT22;5240;51.128;4.566;2022-11-20T00:17:04;3.90;99.90
10388;DHT22;5240;51.128;4.566;2022-11-20T00:19:31;3.90;99.90
10388;DHT22;5240;51.128;4.566;2022-11-20T00:21:58;3.90;99.90
10388;DHT22;5240;51.128;4.566;2022-11-20T00:24:25;3.90;99.90
10388;DHT22;5240;51.128;4.566;2022-11-20T00:26:52;4.00;99.90
10388;DHT22;5240;51.128;4.566;2022-11-20T00:29:19;4.10;99.90
10388;DHT22;5240;51.128;4.566;2022-11-20T00:31:47;4.10;99.90
10388;DHT22;5240;51.128;4.566;2022-11-20T00:34:14;4.10;99.90
10388;DHT22;5240;51.128;4.566;2022-11-20T00:36:41;4.00;99.90
10388;DHT22;5240;51.128;4.566;2022-11-20T00:39:08;4.10;99.90
10388;DHT22;5240;51.128;4.566;2022-11-20T00:41:35;4.20;99.90
10388;DHT22;5240;51.128;4.566;2022-11-20T00:44:02;4.30;99.90
10388;DHT22;5240;51.128;4.566;2022-11-20T00:46:29;4.40;99.90
10388;DHT22;5240;51.128;4.566;2022-11-20T00:48:58;4.40;99.90
10388;DHT22;5240;51.128;4.566;2022-11-20T00:51:26;4.30;99.90
10388;DHT22;5240;51.128;4.566;2022-11-20T00:53:55;4.10;99.90
10388;DHT22;5240;51.128;4.566;2022-11-20T00:56:23;4.10;99.90
10388;DHT22;5240;51.128;4.566;2022-11-20T00:58:50;4.10;99.90
10388;DHT22;5240;51.128;4.566;2022-11-20T01:01:18;4.30;99.90
10388;DHT22;5240;51.128;4.566;2022-11-20T01:03:47;4.30;99.90
10388;DHT22;5240;51.128;4.566;2022-11-20T01:06:17;4.30;99.90
10388;DHT22;5240;51.128;4.566;2022-11-20T01:08:45;4.40;99.90
10388;DHT22;5240;51.128;4.566;2022-11-20T01:11:15;4.40;99.90
10388;DHT22;5240;51.128;4.566;2022-11-20T01:13:42;4.50;99.90
10388;DHT22;5240;51.128;4.566;2022-11-20T01:16:12;4.50;99.90
10388;DHT22;5240;51.128;4.566;2022-11-20T01:18:42;4.50;99.90
10388;DHT22;5240;51.128;4.566;2022-11-20T01:21:12;4.60;99.90
10388;DHT22;5240;51.128;4.566;2022-11-20T01:23:41;4.50;99.90
10388;DHT22;5240;51.128;4.566;2022-11-20T01:26:12;4.50;99.90
10388;DHT22;5240;51.128;4.566;2022-11-20T01:28:40;4.50;99.90
10388;DHT22;5240;51.128;4.566;2022-11-20T01:31:14;4.40;99.90
10388;DHT22;5240;51.128;4.566;2022-11-20T01:33:43;4.40;99.90
10388;DHT22;5240;51.128;4.566;2022-11-20T01:36:11;4.40;99.90
10388;DHT22;5240;51.128;4.566;2022-11-20T01:38:40;4.40;99.90
10388;DHT22;5240;51.128;4.566;2022-11-20T01:41:08;4.40;99.90
10388;DHT22;5240;51.128;4.566;2022-11-20T01:43:35;4.40;99.90
10388;DHT22;5240;51.128;4.566;2022-11-20T01:46:05;4.30;99.90
10388;DHT22;5240;51.128;4.566;2022-11-20T01:48:36;4.40;99.90
10388;DHT22;5240;51.128;4.566;2022-11-20T01:51:09;4.30;99.90
10388;DHT22;5240;51.128;4.566;2022-11-20T01:53:40;4.20;99.90
10388;DHT22;5240;51.128;4.566;2022-11-20T01:56:10;4.20;99.90
10388;DHT22;5240;51.128;4.566;2022-11-20T01:58:42;4.10;99.90
10388;DHT22;5240;51.128;4.566;2022-11-20T02:01:12;4.10;99.90
10388;DHT22;5240;51.128;4.566;2022-11-20T02:03:39;4.10;99.90
10388;DHT22;5240;51.128;4.566;2022-11-20T02:06:11;4.10;99.90
10388;DHT22;5240;51.128;4.566;2022-11-20T02:08:40;4.10;99.90
10388;DHT22;5240;51.128;4.566;2022-11-20T02:11:08;4.10;99.90
10388;DHT22;5240;51.128;4.566;2022-11-20T02:13:35;4.00;99.90
10388;DHT22;5240;51.128;4.566;2022-11-20T02:16:14;4.00;99.90
10388;DHT22;5240;51.128;4.566;2022-11-20T02:18:43;4.00;99.90
10388;DHT22;5240;51.128;4.566;2022-11-20T02:24:06;3.90;99.90
10388;DHT22;5240;51.128;4.566;2022-11-20T02:26:40;4.00;99.90
10388;DHT22;5240;51.128;4.566;2022-11-20T02:29:07;4.00;99.90
10388;DHT22;5240;51.128;4.566;2022-11-20T02:31:40;4.00;99.90
10388;DHT22;5240;51.128;4.566;2022-11-20T02:34:08;4.00;99.90
10388;DHT22;5240;51.128;4.566;2022-11-20T02:36:36;4.10;99.90
10388;DHT22;5240;51.128;4.566;2022-11-20T02:39:06;4.10;99.90
10388;DHT22;5240;51.128;4.566;2022-11-20T02:41:34;4.10;99.90
10388;DHT22;5240;51.128;4.566;2022-11-20T02:44:01;4.00;99.90
10388;DHT22;5240;51.128;4.566;2022-11-20T02:46:30;4.00;99.90
10388;DHT22;5240;51.128;4.566;2022-11-20T02:48:57;3.90;99.90
10388;DHT22;5240;51.128;4.566;2022-11-20T02:51:24;4.00;99.90
10388;DHT22;5240;51.128;4.566;2022-11-20T02:53:51;4.00;99.90
10388;DHT22;5240;51.128;4.566;2022-11-20T02:56:20;4.10;99.90
10388;DHT22;5240;51.128;4.566;2022-11-20T02:58:47;4.20;99.90
10388;DHT22;5240;51.128;4.566;2022-11-20T03:01:15;4.20;99.90
10388;DHT22;5240;51.128;4.566;2022-11-20T03:03:42;4.20;99.90
10388;DHT22;5240;51.128;4.566;2022-11-20T03:06:09;4.20;99.90
10388;DHT22;5240;51.128;4.566;2022-11-20T03:08:36;4.10;99.90
10388;DHT22;5240;51.128;4.566;2022-11-20T03:11:04;4.10;99.90
10388;DHT22;5240;51.128;4.566;2022-11-20T03:13:33;4.00;99.90
10388;DHT22;5240;51.128;4.566;2022-11-20T03:16:09;4.00;99.90
10388;DHT22;5240;51.128;4.566;2022-11-20T03:18:37;4.00;99.90
10388;DHT22;5240;51.128;4.566;2022-11-20T03:21:05;4.00;99.90
10388;DHT22;5240;51.128;4.566;2022-11-20T03:23:32;4.00;99.90
10388;DHT22;5240;51.128;4.566;2022-11-20T03:26:10;3.90;99.90
10388;DHT22;5240;51.128;4.566;2022-11-20T03:28:39;3.90;99.90
10388;DHT22;5240;51.128;4.566;2022-11-20T03:31:08;3.90;99.90
10388;DHT22;5240;51.128;4.566;2022-11-20T03:33:36;3.90;99.90
10388;DHT22;5240;51.128;4.566;2022-11-20T03:36:04;4.00;99.90
10388;DHT22;5240;51.128;4.566;2022-11-20T03:38:31;4.00;99.90
10388;DHT22;5240;51.128;4.566;2022-11-20T03:41:00;4.00;99.90
10388;DHT22;5240;51.128;4.566;2022-11-20T03:43:27;4.00;99.90
10388;DHT22;5240;51.128;4.566;2022-11-20T03:45:56;4.00;99.90
10388;DHT22;5240;51.128;4.566;2022-11-20T03:48:23;4.00;99.90
10388;DHT22;5240;51.128;4.566;2022-11-20T03:50:50;3.90;99.90
10388;DHT22;5240;51.128;4.566;2022-11-20T03:53:18;3.90;99.90
10388;DHT22;5240;51.128;4.566;2022-11-20T03:55:45;3.80;99.90
10388;DHT22;5240;51.128;4.566;2022-11-20T03:58:16;3.90;99.90
10388;DHT22;5240;51.128;4.566;2022-11-20T04:00:43;3.90;99.90
10388;DHT22;5240;51.128;4.566;2022-11-20T04:03:12;4.00;99.90
10388;DHT22;5240;51.128;4.566;2022-11-20T04:05:39;4.00;99.90
10388;DHT22;5240;51.128;4.566;2022-11-20T04:08:06;4.00;99.90
10388;DHT22;5240;51.128;4.566;2022-11-20T04:10:33;4.00;99.90
10388;DHT22;5240;51.128;4.566;2022-11-20T04:13:00;4.10;99.90
10388;DHT22;5240;51.128;4.566;2022-11-20T04:15:27;4.00;99.90
10388;DHT22;5240;51.128;4.566;2022-11-20T04:17:54;4.10;99.90
10388;DHT22;5240;51.128;4.566;2022-11-20T04:20:22;4.10;99.90
10388;DHT22;5240;51.128;4.566;2022-11-20T04:22:53;4.10;99.90
10388;DHT22;5240;51.128;4.566;2022-11-20T04:25:20;4.10;99.90
10388;DHT22;5240;51.128;4.566;2022-11-20T04:27:47;4.00;99.90
10388;DHT22;5240;51.128;4.566;2022-11-20T04:30:14;4.00;99.90
10388;DHT22;5240;51.128;4.566;2022-11-20T04:32:41;4.00;99.90
10388;DHT22;5240;51.128;4.566;2022-11-20T04:35:08;3.90;99.90
10388;DHT22;5240;51.128;4.566;2022-11-20T04:37:36;3.80;99.90
10388;DHT22;5240;51.128;4.566;2022-11-20T04:40:04;3.80;99.90
10388;DHT22;5240;51.128;4.566;2022-11-20T04:42:31;3.80;99.90
10388;DHT22;5240;51.128;4.566;2022-11-20T04:44:58;3.80;99.90
10388;DHT22;5240;51.128;4.566;2022-11-20T04:47:25;3.70;99.90
10388;DHT22;5240;51.128;4.566;2022-11-20T04:49:52;3.80;99.90
10388;DHT22;5240;51.128;4.566;2022-11-20T04:52:19;3.80;99.90
10388;DHT22;5240;51.128;4.566;2022-11-20T04:54:48;3.80;99.90
10388;DHT22;5240;51.128;4.566;2022-11-20T04:57:18;3.80;99.90
10388;DHT22;5240;51.128;4.566;2022-11-20T04:59:45;3.80;99.90
10388;DHT22;5240;51.128;4.566;2022-11-20T05:02:12;3.90;99.90
10388;DHT22;5240;51.128;4.566;2022-11-20T05:04:39;3.90;99.90
10388;DHT22;5240;51.128;4.566;2022-11-20T05:07:06;3.90;99.90
10388;DHT22;5240;51.128;4.566;2022-11-20T05:09:33;4.00;99.90
10388;DHT22;5240;51.128;4.566;2022-11-20T05:12:01;4.00;99.90
10388;DHT22;5240;51.128;4.566;2022-11-20T05:14:28;4.00;99.90
10388;DHT22;5240;51.128;4.566;2022-11-20T05:16:55;4.00;99.90
10388;DHT22;5240;51.128;4.566;2022-11-20T05:19:22;4.10;99.90
10388;DHT22;5240;51.128;4.566;2022-11-20T05:21:49;4.10;99.90
10388;DHT22;5240;51.128;4.566;2022-11-20T05:24:16;4.10;99.90
10388;DHT22;5240;51.128;4.566;2022-11-20T05:26:43;4.00;99.90
10388;DHT22;5240;51.128;4.566;2022-11-20T05:29:12;4.00;99.90
10388;DHT22;5240;51.128;4.566;2022-11-20T05:31:40;4.00;99.90
10388;DHT22;5240;51.128;4.566;2022-11-20T05:34:07;4.00;99.90
10388;DHT22;5240;51.128;4.566;2022-11-20T05:36:34;4.00;99.90
10388;DHT22;5240;51.128;4.566;2022-11-20T05:39:02;4.00;99.90
10388;DHT22;5240;51.128;4.566;2022-11-20T05:41:29;4.00;99.90
10388;DHT22;5240;51.128;4.566;2022-11-20T05:43:56;3.90;99.90
10388;DHT22;5240;51.128;4.566;2022-11-20T05:46:25;4.00;99.90
10388;DHT22;5240;51.128;4.566;2022-11-20T05:48:52;4.00;99.90
10388;DHT22;5240;51.128;4.566;2022-11-20T05:51:19;4.00;99.90
10388;DHT22;5240;51.128;4.566;2022-11-20T05:53:46;4.00;99.90
10388;DHT22;5240;51.128;4.566;2022-11-20T05:56:15;4.10;99.90
10388;DHT22;5240;51.128;4.566;2022-11-20T05:58:42;4.00;99.90
10388;DHT22;5240;51.128;4.566;2022-11-20T06:01:11;4.00;99.90
10388;DHT22;5240;51.128;4.566;2022-11-20T06:03:41;4.00;99.90
10388;DHT22;5240;51.128;4.566;2022-11-20T06:06:11;4.00;99.90
10388;DHT22;5240;51.128;4.566;2022-11-20T06:08:39;3.90;99.90
10388;DHT22;5240;51.128;4.566;2022-11-20T06:11:07;3.90;99.90
10388;DHT22;5240;51.128;4.566;2022-11-20T06:13:35;3.90;99.90
10388;DHT22;5240;51.128;4.566;2022-11-20T06:16:03;3.90;99.90
10388;DHT22;5240;51.128;4.566;2022-11-20T06:18:30;3.80;99.90
10388;DHT22;5240;51.128;4.566;2022-11-20T06:21:03;3.80;99.90
10388;DHT22;5240;51.128;4.566;2022-11-20T06:23:31;3.80;99.90
10388;DHT22;5240;51.128;4.566;2022-11-20T06:26:02;3.70;99.90
10388;DHT22;5240;51.128;4.566;2022-11-20T06:28:29;3.70;99.90
10388;DHT22;5240;51.128;4.566;2022-11-20T06:30:56;3.60;99.90
10388;DHT22;5240;51.128;4.566;2022-11-20T06:33:23;3.60;99.90
10388;DHT22;5240;51.128;4.566;2022-11-20T06:35:50;3.70;99.90
10388;DHT22;5240;51.128;4.566;2022-11-20T06:38:19;3.60;99.90
10388;DHT22;5240;51.128;4.566;2022-11-20T06:40:46;3.70;99.90
10388;DHT22;5240;51.128;4.566;2022-11-20T06:43:13;3.70;99.90
10388;DHT22;5240;51.128;4.566;2022-11-20T06:45:40;3.80;99.90
10388;DHT22;5240;51.128;4.566;2022-11-20T06:48:07;3.80;99.90
10388;DHT22;5240;51.128;4.566;2022-11-20T06:50:36;3.80;99.90
10388;DHT22;5240;51.128;4.566;2022-11-20T06:53:04;3.80;99.90
10388;DHT22;5240;51.128;4.566;2022-11-20T06:55:33;3.80;99.90
10388;DHT22;5240;51.128;4.566;2022-11-20T06:58:00;3.70;99.90
10388;DHT22;5240;51.128;4.566;2022-11-20T07:00:27;3.70;99.90
10388;DHT22;5240;51.128;4.566;2022-11-20T07:02:54;3.70;99.90
10388;DHT22;5240;51.128;4.566;2022-11-20T07:05:21;3.70;99.90
10388;DHT22;5240;51.128;4.566;2022-11-20T07:07:48;3.70;99.90
10388;DHT22;5240;51.128;4.566;2022-11-20T07:10:15;3.80;99.90
10388;DHT22;5240;51.128;4.566;2022-11-20T07:12:49;3.80;99.90
10388;DHT22;5240;51.128;4.566;2022-11-20T07:15:16;3.80;99.90
10388;DHT22;5240;51.128;4.566;2022-11-20T07:17:43;3.90;99.90
10388;DHT22;5240;51.128;4.566;2022-11-20T07:20:11;4.00;99.90
10388;DHT22;5240;51.128;4.566;2022-11-20T07:22:38;4.00;99.90
10388;DHT22;5240;51.128;4.566;2022-11-20T07:25:06;4.00;99.90
10388;DHT22;5240;51.128;4.566;2022-11-20T07:27:33;4.00;99.90
10388;DHT22;5240;51.128;4.566;2022-11-20T07:30:02;4.10;99.90
10388;DHT22;5240;51.128;4.566;2022-11-20T07:32:29;4.10;99.90
10388;DHT22;5240;51.128;4.566;2022-11-20T07:34:56;4.10;99.90
10388;DHT22;5240;51.128;4.566;2022-11-20T07:37:23;4.20;99.90
10388;DHT22;5240;51.128;4.566;2022-11-20T07:39:50;4.10;99.90
10388;DHT22;5240;51.128;4.566;2022-11-20T07:42:17;4.10;99.90
10388;DHT22;5240;51.128;4.566;2022-11-20T07:44:44;4.20;99.90
10388;DHT22;5240;51.128;4.566;2022-11-20T07:47:13;4.30;99.90
10388;DHT22;5240;51.128;4.566;2022-11-20T07:49:40;4.20;99.90
10388;DHT22;5240;51.128;4.566;2022-11-20T07:52:07;4.20;99.90
10388;DHT22;5240;51.128;4.566;2022-11-20T07:54:34;4.20;99.90
10388;DHT22;5240;51.128;4.566;2022-11-20T07:57:01;4.20;99.90
10388;DHT22;5240;51.128;4.566;2022-11-20T07:59:28;4.20;99.90
10388;DHT22;5240;51.128;4.566;2022-11-20T08:01:55;4.30;99.90
10388;DHT22;5240;51.128;4.566;2022-11-20T08:04:23;4.30;99.90
10388;DHT22;5240;51.128;4.566;2022-11-20T08:06:52;4.30;99.90
10388;DHT22;5240;51.128;4.566;2022-11-20T08:09:19;4.30;99.90
10388;DHT22;5240;51.128;4.566;2022-11-20T08:11:46;4.30;99.90
10388;DHT22;5240;51.128;4.566;2022-11-20T08:14:30;4.40;99.90
10388;DHT22;5240;51.128;4.566;2022-11-20T08:16:57;4.40;99.90
10388;DHT22;5240;51.128;4.566;2022-11-20T08:19:26;4.40;99.90
10388;DHT22;5240;51.128;4.566;2022-11-20T08:21:53;4.50;99.90
10388;DHT22;5240;51.128;4.566;2022-11-20T08:24:20;4.50;99.90
10388;DHT22;5240;51.128;4.566;2022-11-20T08:26:47;4.60;99.90
10388;DHT22;5240;51.128;4.566;2022-11-20T08:29:14;4.60;99.90
10388;DHT22;5240;51.128;4.566;2022-11-20T08:31:41;4.70;99.90
10388;DHT22;5240;51.128;4.566;2022-11-20T08:34:08;4.80;99.90
10388;DHT22;5240;51.128;4.566;2022-11-20T08:36:36;4.80;99.90
10388;DHT22;5240;51.128;4.566;2022-11-20T08:39:03;4.80;99.90
10388;DHT22;5240;51.128;4.566;2022-11-20T08:41:30;4.90;99.90
10388;DHT22;5240;51.128;4.566;2022-11-20T08:43:59;4.90;99.90
10388;DHT22;5240;51.128;4.566;2022-11-20T08:46:32;4.90;99.90
10388;DHT22;5240;51.128;4.566;2022-11-20T08:49:02;5.00;99.90
10388;DHT22;5240;51.128;4.566;2022-11-20T08:51:29;5.00;99.90
10388;DHT22;5240;51.128;4.566;2022-11-20T08:53:57;5.10;99.90
10388;DHT22;5240;51.128;4.566;2022-11-20T08:56:24;5.10;99.90
10388;DHT22;5240;51.128;4.566;2022-11-20T08:58:52;5.20;99.90
10388;DHT22;5240;51.128;4.566;2022-11-20T09:01:19;5.20;99.90
10388;DHT22;5240;51.128;4.566;2022-11-20T09:03:46;5.20;99.90
10388;DHT22;5240;51.128;4.566;2022-11-20T09:06:14;5.20;99.90
10388;DHT22;5240;51.128;4.566;2022-11-20T09:08:41;5.20;99.90
10388;DHT22;5240;51.128;4.566;2022-11-20T09:11:10;5.20;99.90
10388;DHT22;5240;51.128;4.566;2022-11-20T09:13:37;5.20;99.90
10388;DHT22;5240;51.128;4.566;2022-11-20T09:16:05;5.20;99.90
10388;DHT22;5240;51.128;4.566;2022-11-20T09:18:34;5.20;99.90
10388;DHT22;5240;51.128;4.566;2022-11-20T09:21:02;5.20;99.90
10388;DHT22;5240;51.128;4.566;2022-11-20T09:23:32;5.20;99.90
10388;DHT22;5240;51.128;4.566;2022-11-20T09:26:02;5.20;99.90
10388;DHT22;5240;51.128;4.566;2022-11-20T09:28:31;5.20;99.90
10388;DHT22;5240;51.128;4.566;2022-11-20T09:30:58;5.20;99.90
10388;DHT22;5240;51.128;4.566;2022-11-20T09:33:25;5.20;99.90
10388;DHT22;5240;51.128;4.566;2022-11-20T09:35:52;5.30;99.90
10388;DHT22;5240;51.128;4.566;2022-11-20T09:38:19;5.40;99.90
10388;DHT22;5240;51.128;4.566;2022-11-20T09:40:51;5.40;99.90
10388;DHT22;5240;51.128;4.566;2022-11-20T09:43:27;5.50;99.90
10388;DHT22;5240;51.128;4.566;2022-11-20T09:46:07;5.50;99.90
10388;DHT22;5240;51.128;4.566;2022-11-20T09:48:54;5.60;99.90
10388;DHT22;5240;51.128;4.566;2022-11-20T09:51:32;5.60;99.90
10388;DHT22;5240;51.128;4.566;2022-11-20T09:54:10;5.60;99.90
10388;DHT22;5240;51.128;4.566;2022-11-20T09:56:41;5.70;99.90
10388;DHT22;5240;51.128;4.566;2022-11-20T09:59:21;5.70;99.90
10388;DHT22;5240;51.128;4.566;2022-11-20T10:01:50;5.70;99.90
10388;DHT22;5240;51.128;4.566;2022-11-20T10:04:19;5.70;99.90
10388;DHT22;5240;51.128;4.566;2022-11-20T10:06:53;5.70;99.90
10388;DHT22;5240;51.128;4.566;2022-11-20T10:09:27;5.80;99.90
10388;DHT22;5240;51.128;4.566;2022-11-20T10:12:06;5.90;99.90
10388;DHT22;5240;51.128;4.566;2022-11-20T10:14:42;5.90;99.90
10388;DHT22;5240;51.128;4.566;2022-11-20T10:17:19;5.90;99.90
10388;DHT22;5240;51.128;4.566;2022-11-20T10:20:02;6.00;99.90
10388;DHT22;5240;51.128;4.566;2022-11-20T10:22:42;6.00;99.90
10388;DHT22;5240;51.128;4.566;2022-11-20T10:25:14;6.00;99.90
10388;DHT22;5240;51.128;4.566;2022-11-20T10:28:08;6.00;99.90
10388;DHT22;5240;51.128;4.566;2022-11-20T10:30:40;6.10;99.90
10388;DHT22;5240;51.128;4.566;2022-11-20T10:33:15;6.10;99.90
10388;DHT22;5240;51.128;4.566;2022-11-20T10:35:49;6.10;99.90
10388;DHT22;5240;51.128;4.566;2022-11-20T10:38:20;6.00;99.90
10388;DHT22;5240;51.128;4.566;2022-11-20T10:40:51;6.00;99.90
10388;DHT22;5240;51.128;4.566;2022-11-20T10:43:23;6.10;99.90
10388;DHT22;5240;51.128;4.566;2022-11-20T10:45:57;6.10;99.90
10388;DHT22;5240;51.128;4.566;2022-11-20T10:48:28;6.20;99.90
10388;DHT22;5240;51.128;4.566;2022-11-20T10:51:15;6.30;99.90
10388;DHT22;5240;51.128;4.566;2022-11-20T10:53:59;6.40;99.90
10388;DHT22;5240;51.128;4.566;2022-11-20T10:56:35;6.50;99.90
10388;DHT22;5240;51.128;4.566;2022-11-20T10:59:32;6.60;99.90
10388;DHT22;5240;51.128;4.566;2022-11-20T11:02:15;6.70;99.90
10388;DHT22;5240;51.128;4.566;2022-11-20T11:04:45;6.70;99.90
10388;DHT22;5240;51.128;4.566;2022-11-20T11:07:17;6.80;99.90
10388;DHT22;5240;51.128;4.566;2022-11-20T11:09:48;6.80;99.90
10388;DHT22;5240;51.128;4.566;2022-11-20T11:12:15;6.80;99.90
10388;DHT22;5240;51.128;4.566;2022-11-20T11:14:47;6.90;99.90
10388;DHT22;5240;51.128;4.566;2022-11-20T11:17:26;7.00;99.90
10388;DHT22;5240;51.128;4.566;2022-11-20T11:20:06;7.10;99.90
10388;DHT22;5240;51.128;4.566;2022-11-20T11:22:44;7.20;99.90
10388;DHT22;5240;51.128;4.566;2022-11-20T11:25:20;7.30;99.90
10388;DHT22;5240;51.128;4.566;2022-11-20T11:27:49;7.40;99.90
10388;DHT22;5240;51.128;4.566;2022-11-20T11:30:18;7.50;99.90
10388;DHT22;5240;51.128;4.566;2022-11-20T11:32:45;7.60;99.90
10388;DHT22;5240;51.128;4.566;2022-11-20T11:35:22;7.60;99.90
10388;DHT22;5240;51.128;4.566;2022-11-20T11:37:50;7.80;99.90
10388;DHT22;5240;51.128;4.566;2022-11-20T11:40:20;7.70;99.90
10388;DHT22;5240;51.128;4.566;2022-11-20T11:42:54;7.80;99.90
10388;DHT22;5240;51.128;4.566;2022-11-20T11:45:21;7.80;99.90
10388;DHT22;5240;51.128;4.566;2022-11-20T11:47:48;7.80;99.90
10388;DHT22;5240;51.128;4.566;2022-11-20T11:50:22;7.80;99.90
10388;DHT22;5240;51.128;4.566;2022-11-20T11:52:56;7.90;99.90
10388;DHT22;5240;51.128;4.566;2022-11-20T11:55:31;8.00;99.90
10388;DHT22;5240;51.128;4.566;2022-11-20T11:58:29;8.10;99.90
10388;DHT22;5240;51.128;4.566;2022-11-20T12:01:20;8.10;99.90
10388;DHT22;5240;51.128;4.566;2022-11-20T12:03:59;8.20;99.90
10388;DHT22;5240;51.128;4.566;2022-11-20T12:06:31;8.20;99.90
10388;DHT22;5240;51.128;4.566;2022-11-20T12:09:02;8.20;99.90
10388;DHT22;5240;51.128;4.566;2022-11-20T12:11:36;8.20;99.90
10388;DHT22;5240;51.128;4.566;2022-11-20T12:14:11;8.30;99.90
10388;DHT22;5240;51.128;4.566;2022-11-20T12:16:40;8.30;99.90
10388;DHT22;5240;51.128;4.566;2022-11-20T12:19:11;8.20;99.90
10388;DHT22;5240;51.128;4.566;2022-11-20T12:21:49;8.20;99.90
10388;DHT22;5240;51.128;4.566;2022-11-20T12:24:33;8.20;99.90
10388;DHT22;5240;51.128;4.566;2022-11-20T12:27:16;8.20;99.90
10388;DHT22;5240;51.128;4.566;2022-11-20T12:29:56;8.20;99.90
10388;DHT22;5240;51.128;4.566;2022-11-20T12:32:45;8.20;99.90
10388;DHT22;5240;51.128;4.566;2022-11-20T12:35:31;8.20;99.90
10388;DHT22;5240;51.128;4.566;2022-11-20T12:38:29;8.20;99.90
10388;DHT22;5240;51.128;4.566;2022-11-20T12:41:08;8.20;99.90
10388;DHT22;5240;51.128;4.566;2022-11-20T12:43:45;8.20;99.90
10388;DHT22;5240;51.128;4.566;2022-11-20T12:46:38;8.20;99.90
10388;DHT22;5240;51.128;4.566;2022-11-20T12:49:19;8.20;99.90
10388;DHT22;5240;51.128;4.566;2022-11-20T12:52:25;8.20;99.90
10388;DHT22;5240;51.128;4.566;2022-11-20T12:55:11;8.10;99.90
10388;DHT22;5240;51.128;4.566;2022-11-20T12:57:46;8.10;99.90
10388;DHT22;5240;51.128;4.566;2022-11-20T13:00:18;8.10;99.90
10388;DHT22;5240;51.128;4.566;2022-11-20T13:03:05;8.00;99.90
10388;DHT22;5240;51.128;4.566;2022-11-20T13:05:39;8.00;99.90
10388;DHT22;5240;51.128;4.566;2022-11-20T13:08:14;8.00;99.90
10388;DHT22;5240;51.128;4.566;2022-11-20T13:10:49;7.90;99.90
10388;DHT22;5240;51.128;4.566;2022-11-20T13:13:22;7.90;99.90
10388;DHT22;5240;51.128;4.566;2022-11-20T13:15:55;7.80;99.90
10388;DHT22;5240;51.128;4.566;2022-11-20T13:18:23;7.80;99.90
10388;DHT22;5240;51.128;4.566;2022-11-20T13:20:51;7.70;99.90
10388;DHT22;5240;51.128;4.566;2022-11-20T13:23:27;7.70;99.90
10388;DHT22;5240;51.128;4.566;2022-11-20T13:26:13;7.70;99.90
10388;DHT22;5240;51.128;4.566;2022-11-20T13:28:42;7.70;99.90
10388;DHT22;5240;51.128;4.566;2022-11-20T13:31:23;7.60;99.90
10388;DHT22;5240;51.128;4.566;2022-11-20T13:33:52;7.60;99.90
10388;DHT22;5240;51.128;4.566;2022-11-20T13:36:22;7.60;99.90
10388;DHT22;5240;51.128;4.566;2022-11-20T13:38:51;7.60;99.90
10388;DHT22;5240;51.128;4.566;2022-11-20T13:41:26;7.60;99.90
10388;DHT22;5240;51.128;4.566;2022-11-20T13:44:09;7.60;99.90
10388;DHT22;5240;51.128;4.566;2022-11-20T13:46:39;7.60;99.90
10388;DHT22;5240;51.128;4.566;2022-11-20T13:49:14;7.60;99.90
10388;DHT22;5240;51.128;4.566;2022-11-20T13:51:45;7.60;99.90
10388;DHT22;5240;51.128;4.566;2022-11-20T13:54:55;7.60;99.90
10388;DHT22;5240;51.128;4.566;2022-11-20T13:57:47;7.60;99.90
10388;DHT22;5240;51.128;4.566;2022-11-20T14:00:20;7.50;99.90
10388;DHT22;5240;51.128;4.566;2022-11-20T14:02:59;7.50;99.90
10388;DHT22;5240;51.128;4.566;2022-11-20T14:05:36;7.50;99.90
10388;DHT22;5240;51.128;4.566;2022-11-20T14:08:06;7.50;99.90
10388;DHT22;5240;51.128;4.566;2022-11-20T14:10:37;7.50;99.90
10388;DHT22;5240;51.128;4.566;2022-11-20T14:13:16;7.50;99.90
10388;DHT22;5240;51.128;4.566;2022-11-20T14:15:44;7.50;99.90
10388;DHT22;5240;51.128;4.566;2022-11-20T14:18:13;7.50;99.90
10388;DHT22;5240;51.128;4.566;2022-11-20T14:20:41;7.40;99.90
10388;DHT22;5240;51.128;4.566;2022-11-20T14:23:10;7.50;99.90
10388;DHT22;5240;51.128;4.566;2022-11-20T14:25:42;7.40;99.90
10388;DHT22;5240;51.128;4.566;2022-11-20T14:28:20;7.50;99.90
10388;DHT22;5240;51.128;4.566;2022-11-20T14:30:48;7.50;99.90
10388;DHT22;5240;51.128;4.566;2022-11-20T14:33:16;7.50;99.90
10388;DHT22;5240;51.128;4.566;2022-11-20T14:35:47;7.50;99.90
10388;DHT22;5240;51.128;4.566;2022-11-20T14:38:16;7.50;99.90
10388;DHT22;5240;51.128;4.566;2022-11-20T14:40:44;7.50;99.90
10388;DHT22;5240;51.128;4.566;2022-11-20T14:43:21;7.50;99.90
10388;DHT22;5240;51.128;4.566;2022-11-20T14:45:55;7.50;99.90
10388;DHT22;5240;51.128;4.566;2022-11-20T14:48:26;7.50;99.90
10388;DHT22;5240;51.128;4.566;2022-11-20T14:50:56;7.50;99.90
10388;DHT22;5240;51.128;4.566;2022-11-20T14:53:24;7.60;99.90
10388;DHT22;5240;51.128;4.566;2022-11-20T14:55:56;7.60;99.90
10388;DHT22;5240;51.128;4.566;2022-11-20T14:58:27;7.60;99.90
10388;DHT22;5240;51.128;4.566;2022-11-20T15:00:55;7.60;99.90
10388;DHT22;5240;51.128;4.566;2022-11-20T15:03:23;7.70;99.90
10388;DHT22;5240;51.128;4.566;2022-11-20T15:05:50;7.70;99.90
10388;DHT22;5240;51.128;4.566;2022-11-20T15:08:18;7.70;99.90
10388;DHT22;5240;51.128;4.566;2022-11-20T15:10:47;7.70;99.90
10388;DHT22;5240;51.128;4.566;2022-11-20T15:13:17;7.70;99.90
10388;DHT22;5240;51.128;4.566;2022-11-20T15:15:52;7.70;99.90
10388;DHT22;5240;51.128;4.566;2022-11-20T15:18:22;7.70;99.90
10388;DHT22;5240;51.128;4.566;2022-11-20T15:20:50;7.70;99.90
10388;DHT22;5240;51.128;4.566;2022-11-20T15:23:18;7.80;99.90
10388;DHT22;5240;51.128;4.566;2022-11-20T15:25:46;7.80;99.90
10388;DHT22;5240;51.128;4.566;2022-11-20T15:28:18;7.80;99.90
10388;DHT22;5240;51.128;4.566;2022-11-20T15:30:45;7.80;99.90
10388;DHT22;5240;51.128;4.566;2022-11-20T15:33:14;7.80;99.90
10388;DHT22;5240;51.128;4.566;2022-11-20T15:35:41;7.90;99.90
10388;DHT22;5240;51.128;4.566;2022-11-20T15:38:08;7.90;99.90
10388;DHT22;5240;51.128;4.566;2022-11-20T15:40:35;7.90;99.90
10388;DHT22;5240;51.128;4.566;2022-11-20T15:43:03;7.90;99.90
10388;DHT22;5240;51.128;4.566;2022-11-20T15:45:34;7.90;99.90
10388;DHT22;5240;51.128;4.566;2022-11-20T15:48:03;8.00;99.90
10388;DHT22;5240;51.128;4.566;2022-11-20T15:50:37;8.00;99.90
10388;DHT22;5240;51.128;4.566;2022-11-20T15:53:04;8.00;99.90
10388;DHT22;5240;51.128;4.566;2022-11-20T15:55:31;8.00;99.90
10388;DHT22;5240;51.128;4.566;2022-11-20T15:57:59;8.00;99.90
10388;DHT22;5240;51.128;4.566;2022-11-20T16:00:26;8.00;99.90
10388;DHT22;5240;51.128;4.566;2022-11-20T16:02:53;8.00;99.90
10388;DHT22;5240;51.128;4.566;2022-11-20T16:05:20;8.00;99.90
10388;DHT22;5240;51.128;4.566;2022-11-20T16:07:50;7.90;99.90
10388;DHT22;5240;51.128;4.566;2022-11-20T16:10:17;7.90;99.90
10388;DHT22;5240;51.128;4.566;2022-11-20T16:12:44;7.90;99.90
10388;DHT22;5240;51.128;4.566;2022-11-20T16:15:29;7.90;99.90
10388;DHT22;5240;51.128;4.566;2022-11-20T16:18:16;7.90;99.90
10388;DHT22;5240;51.128;4.566;2022-11-20T16:20:44;7.90;99.90
10388;DHT22;5240;51.128;4.566;2022-11-20T16:23:13;7.90;99.90
10388;DHT22;5240;51.128;4.566;2022-11-20T16:25:41;7.90;99.90
10388;DHT22;5240;51.128;4.566;2022-11-20T16:28:08;7.80;99.90